sensor_id;sensor_type;location;lat;lon;timestamp;temperature;humidity
1259;DHT22;619;51.472;6.628;2024-02-26T00:00:51;13.20;67.80
1259;DHT22;619;51.472;6.628;2024-02-26T00:03:17;13.30;67.30
1259;DHT22;619;51.472;6.628;2024-02-26T00:05:43;13.40;67.60
1259;DHT22;619;51.472;6.628;2024-02-26T00:08:11;13.50;67.70
1259;DHT22;619;51.472;6.628;2024-02-26T00:10:36;13.60;67.80
1259;DHT22;619;51.472;6.628;2024-02-26T00:13:02;13.60;68.10
1259;DHT22;619;51.472;6.628;2024-02-26T00:15:27;13.70;68.40
1259;DHT22;619;51.472;6.628;2024-02-26T00:17:53;13.70;68.50
1259;DHT22;619;51.472;6.628;2024-02-26T00:20:19;13.70;68.50
1259;DHT22;619;51.472;6.628;2024-02-26T00:22:44;13.60;68.50
1259;DHT22;619;51.472;6.628;2024-02-26T00:25:10;13.60;68.80
1259;DHT22;619;51.472;6.628;2024-02-26T00:27:40;13.50;68.80
1259;DHT22;619;51.472;6.628;2024-02-26T00:30:07;13.50;68.60
1259;DHT22;619;51.472;6.628;2024-02-26T00:32:35;13.40;68.40
1259;DHT22;619;51.472;6.628;2024-02-26T00:35:00;13.30;68.70
1259;DHT22;619;51.472;6.628;2024-02-26T00:37:26;13.10;68.30
1259;DHT22;619;51.472;6.628;2024-02-26T00:39:52;12.90;69.00
1259;DHT22;619;51.472;6.628;2024-02-26T00:42:19;12.90;69.30
1259;DHT22;619;51.472;6.628;2024-02-26T00:44:45;12.80;69.30
1259;DHT22;619;51.472;6.628;2024-02-26T00:47:10;12.90;69.50
1259;DHT22;619;51.472;6.628;2024-02-26T00:49:38;12.90;69.50
1259;DHT22;619;51.472;6.628;2024-02-26T00:52:04;12.90;69.40
1259;DHT22;619;51.472;6.628;2024-02-26T00:54:30;13.00;69.60
1259;DHT22;619;51.472;6.628;2024-02-26T00:56:55;12.90;69.40
1259;DHT22;619;51.472;6.628;2024-02-26T00:59:21;12.90;69.50
1259;DHT22;619;51.472;6.628;2024-02-26T01:01:47;12.90;69.30
1259;DHT22;619;51.472;6.628;2024-02-26T01:04:12;13.00;69.30
1259;DHT22;619;51.472;6.628;2024-02-26T01:06:38;13.10;69.30
1259;DHT22;619;51.472;6.628;2024-02-26T01:09:03;13.20;69.10
1259;DHT22;619;51.472;6.628;2024-02-26T01:11:29;13.30;68.90
1259;DHT22;619;51.472;6.628;2024-02-26T01:13:55;13.30;68.50
1259;DHT22;619;51.472;6.628;2024-02-26T01:16:23;13.30;68.20
1259;DHT22;619;51.472;6.628;2024-02-26T01:18:49;13.40;68.10
1259;DHT22;619;51.472;6.628;2024-02-26T01:21:17;13.40;68.10
1259;DHT22;619;51.472;6.628;2024-02-26T01:23:45;13.40;68.20
1259;DHT22;619;51.472;6.628;2024-02-26T01:26:13;13.30;67.90
1259;DHT22;619;51.472;6.628;2024-02-26T01:28:38;13.30;68.10
1259;DHT22;619;51.472;6.628;2024-02-26T01:31:06;13.30;68.20
1259;DHT22;619;51.472;6.628;2024-02-26T01:33:33;13.30;68.10
1259;DHT22;619;51.472;6.628;2024-02-26T01:35:59;13.40;67.90
1259;DHT22;619;51.472;6.628;2024-02-26T01:38:27;13.40;67.50
1259;DHT22;619;51.472;6.628;2024-02-26T01:40:53;13.40;67.60
1259;DHT22;619;51.472;6.628;2024-02-26T01:43:18;13.40;67.50
1259;DHT22;619;51.472;6.628;2024-02-26T01:45:46;13.40;67.50
1259;DHT22;619;51.472;6.628;2024-02-26T01:48:12;13.40;67.30
1259;DHT22;619;51.472;6.628;2024-02-26T01:50:38;13.40;67.30
1259;DHT22;619;51.472;6.628;2024-02-26T01:53:04;13.40;67.20
1259;DHT22;619;51.472;6.628;2024-02-26T01:55:32;13.30;66.80
1259;DHT22;619;51.472;6.628;2024-02-26T01:58:03;13.20;66.90
1259;DHT22;619;51.472;6.628;2024-02-26T02:00:32;13.00;66.60
1259;DHT22;619;51.472;6.628;2024-02-26T02:02:58;12.90;66.90
1259;DHT22;619;51.472;6.628;2024-02-26T02:05:24;12.90;67.30
1259;DHT22;619;51.472;6.628;2024-02-26T02:07:54;12.80;67.20
1259;DHT22;619;51.472;6.628;2024-02-26T02:10:22;12.80;67.10
1259;DHT22;619;51.472;6.628;2024-02-26T02:12:51;12.80;67.00
1259;DHT22;619;51.472;6.628;2024-02-26T02:15:19;12.80;66.90
1259;DHT22;619;51.472;6.628;2024-02-26T02:17:45;12.80;67.10
1259;DHT22;619;51.472;6.628;2024-02-26T02:20:25;12.90;67.10
1259;DHT22;619;51.472;6.628;2024-02-26T02:22:53;12.90;67.10
1259;DHT22;619;51.472;6.628;2024-02-26T02:25:18;13.00;67.00
1259;DHT22;619;51.472;6.628;2024-02-26T02:27:44;13.10;67.10
1259;DHT22;619;51.472;6.628;2024-02-26T02:30:11;13.10;66.90
1259;DHT22;619;51.472;6.628;2024-02-26T02:32:39;13.20;66.90
1259;DHT22;619;51.472;6.628;2024-02-26T02:35:06;13.20;67.10
1259;DHT22;619;51.472;6.628;2024-02-26T02:37:31;13.30;67.30
1259;DHT22;619;51.472;6.628;2024-02-26T02:39:59;13.40;67.50
1259;DHT22;619;51.472;6.628;2024-02-26T02:42:26;13.30;67.20
1259;DHT22;619;51.472;6.628;2024-02-26T02:44:51;13.30;67.60
1259;DHT22;619;51.472;6.628;2024-02-26T02:47:17;13.30;67.60
1259;DHT22;619;51.472;6.628;2024-02-26T02:49:43;13.30;67.60
1259;DHT22;619;51.472;6.628;2024-02-26T02:52:11;13.30;67.70
1259;DHT22;619;51.472;6.628;2024-02-26T02:54:36;13.30;67.80
1259;DHT22;619;51.472;6.628;2024-02-26T02:57:05;13.30;68.10
1259;DHT22;619;51.472;6.628;2024-02-26T02:59:34;13.30;68.20
1259;DHT22;619;51.472;6.628;2024-02-26T03:01:59;13.30;68.40
1259;DHT22;619;51.472;6.628;2024-02-26T03:04:25;13.40;68.60
1259;DHT22;619;51.472;6.628;2024-02-26T03:06:50;13.40;68.60
1259;DHT22;619;51.472;6.628;2024-02-26T03:09:16;13.40;68.40
1259;DHT22;619;51.472;6.628;2024-02-26T03:11:42;13.40;68.50
1259;DHT22;619;51.472;6.628;2024-02-26T03:14:09;13.50;68.60
1259;DHT22;619;51.472;6.628;2024-02-26T03:16:37;13.50;68.70
1259;DHT22;619;51.472;6.628;2024-02-26T03:19:03;13.50;68.60
1259;DHT22;619;51.472;6.628;2024-02-26T03:21:31;13.50;68.60
1259;DHT22;619;51.472;6.628;2024-02-26T03:23:57;13.60;68.80
1259;DHT22;619;51.472;6.628;2024-02-26T03:26:24;13.50;68.60
1259;DHT22;619;51.472;6.628;2024-02-26T03:28:55;13.40;68.40
1259;DHT22;619;51.472;6.628;2024-02-26T03:31:23;13.40;69.70
1259;DHT22;619;51.472;6.628;2024-02-26T03:33:51;13.30;69.80
1259;DHT22;619;51.472;6.628;2024-02-26T03:36:16;13.20;70.60
1259;DHT22;619;51.472;6.628;2024-02-26T03:38:45;13.20;71.20
1259;DHT22;619;51.472;6.628;2024-02-26T03:41:11;13.00;71.50
1259;DHT22;619;51.472;6.628;2024-02-26T03:43:36;12.90;72.20
1259;DHT22;619;51.472;6.628;2024-02-26T03:46:02;12.80;72.60
1259;DHT22;619;51.472;6.628;2024-02-26T03:48:27;12.70;72.90
1259;DHT22;619;51.472;6.628;2024-02-26T03:50:53;12.60;73.00
1259;DHT22;619;51.472;6.628;2024-02-26T03:53:19;12.60;73.20
1259;DHT22;619;51.472;6.628;2024-02-26T03:55:47;12.50;73.30
1259;DHT22;619;51.472;6.628;2024-02-26T03:58:17;12.30;73.60
1259;DHT22;619;51.472;6.628;2024-02-26T04:00:43;12.40;73.90
1259;DHT22;619;51.472;6.628;2024-02-26T04:03:09;12.10;74.00
1259;DHT22;619;51.472;6.628;2024-02-26T04:05:35;12.10;74.40
1259;DHT22;619;51.472;6.628;2024-02-26T04:08:00;12.00;74.40
1259;DHT22;619;51.472;6.628;2024-02-26T04:10:26;12.00;74.70
1259;DHT22;619;51.472;6.628;2024-02-26T04:12:52;11.90;74.80
1259;DHT22;619;51.472;6.628;2024-02-26T04:15:20;11.90;74.80
1259;DHT22;619;51.472;6.628;2024-02-26T04:17:46;12.00;75.10
1259;DHT22;619;51.472;6.628;2024-02-26T04:20:15;11.90;75.00
1259;DHT22;619;51.472;6.628;2024-02-26T04:22:42;11.80;75.10
1259;DHT22;619;51.472;6.628;2024-02-26T04:25:08;11.80;75.40
1259;DHT22;619;51.472;6.628;2024-02-26T04:27:36;11.80;75.60
1259;DHT22;619;51.472;6.628;2024-02-26T04:30:04;11.70;75.60
1259;DHT22;619;51.472;6.628;2024-02-26T04:32:32;11.70;75.80
1259;DHT22;619;51.472;6.628;2024-02-26T04:34:58;11.60;76.00
1259;DHT22;619;51.472;6.628;2024-02-26T04:37:24;11.40;76.30
1259;DHT22;619;51.472;6.628;2024-02-26T04:40:02;11.50;76.90
1259;DHT22;619;51.472;6.628;2024-02-26T04:42:28;11.50;76.90
1259;DHT22;619;51.472;6.628;2024-02-26T04:44:56;11.50;77.00
1259;DHT22;619;51.472;6.628;2024-02-26T04:47:22;11.50;76.90
1259;DHT22;619;51.472;6.628;2024-02-26T04:49:50;11.50;77.50
1259;DHT22;619;51.472;6.628;2024-02-26T04:52:16;11.40;77.30
1259;DHT22;619;51.472;6.628;2024-02-26T04:54:44;11.40;78.30
1259;DHT22;619;51.472;6.628;2024-02-26T04:57:12;11.40;77.70
1259;DHT22;619;51.472;6.628;2024-02-26T04:59:37;11.40;77.60
1259;DHT22;619;51.472;6.628;2024-02-26T05:02:06;11.40;77.70
1259;DHT22;619;51.472;6.628;2024-02-26T05:04:34;11.50;77.80
1259;DHT22;619;51.472;6.628;2024-02-26T05:06:59;11.40;77.80
1259;DHT22;619;51.472;6.628;2024-02-26T05:09:25;11.40;78.00
1259;DHT22;619;51.472;6.628;2024-02-26T05:11:51;11.40;78.00
1259;DHT22;619;51.472;6.628;2024-02-26T05:14:16;11.30;78.10
1259;DHT22;619;51.472;6.628;2024-02-26T05:16:42;11.30;78.20
1259;DHT22;619;51.472;6.628;2024-02-26T05:19:08;11.20;78.40
1259;DHT22;619;51.472;6.628;2024-02-26T05:21:33;11.20;78.90
1259;DHT22;619;51.472;6.628;2024-02-26T05:23:59;11.10;79.10
1259;DHT22;619;51.472;6.628;2024-02-26T05:26:25;11.00;79.30
1259;DHT22;619;51.472;6.628;2024-02-26T05:28:51;11.00;79.60
1259;DHT22;619;51.472;6.628;2024-02-26T05:31:17;11.00;79.70
1259;DHT22;619;51.472;6.628;2024-02-26T05:33:43;10.90;80.00
1259;DHT22;619;51.472;6.628;2024-02-26T05:36:09;10.70;80.40
1259;DHT22;619;51.472;6.628;2024-02-26T05:38:34;10.70;80.80
1259;DHT22;619;51.472;6.628;2024-02-26T05:41:01;10.80;81.00
1259;DHT22;619;51.472;6.628;2024-02-26T05:43:26;10.80;80.80
1259;DHT22;619;51.472;6.628;2024-02-26T05:45:53;10.90;80.90
1259;DHT22;619;51.472;6.628;2024-02-26T05:48:19;10.90;80.90
1259;DHT22;619;51.472;6.628;2024-02-26T05:50:47;10.80;80.60
1259;DHT22;619;51.472;6.628;2024-02-26T05:53:15;10.80;80.90
1259;DHT22;619;51.472;6.628;2024-02-26T05:55:41;10.80;80.90
1259;DHT22;619;51.472;6.628;2024-02-26T05:58:07;10.70;81.00
1259;DHT22;619;51.472;6.628;2024-02-26T06:00:32;10.70;81.40
1259;DHT22;619;51.472;6.628;2024-02-26T06:03:00;10.80;81.60
1259;DHT22;619;51.472;6.628;2024-02-26T06:05:27;10.80;81.50
1259;DHT22;619;51.472;6.628;2024-02-26T06:07:53;10.90;81.20
1259;DHT22;619;51.472;6.628;2024-02-26T06:10:20;11.00;81.00
1259;DHT22;619;51.472;6.628;2024-02-26T06:12:47;11.00;80.80
1259;DHT22;619;51.472;6.628;2024-02-26T06:15:13;11.00;80.90
1259;DHT22;619;51.472;6.628;2024-02-26T06:17:38;10.90;80.90
1259;DHT22;619;51.472;6.628;2024-02-26T06:20:04;10.90;81.20
1259;DHT22;619;51.472;6.628;2024-02-26T06:22:32;10.90;81.20
1259;DHT22;619;51.472;6.628;2024-02-26T06:24:57;10.90;81.20
1259;DHT22;619;51.472;6.628;2024-02-26T06:27:23;10.80;81.20
1259;DHT22;619;51.472;6.628;2024-02-26T06:29:51;10.80;81.50
1259;DHT22;619;51.472;6.628;2024-02-26T06:32:17;10.90;81.50
1259;DHT22;619;51.472;6.628;2024-02-26T06:34:42;11.00;81.30
1259;DHT22;619;51.472;6.628;2024-02-26T06:37:08;11.00;81.30
1259;DHT22;619;51.472;6.628;2024-02-26T06:39:34;10.90;81.30
1259;DHT22;619;51.472;6.628;2024-02-26T06:42:00;10.90;81.30
1259;DHT22;619;51.472;6.628;2024-02-26T06:44:29;10.90;81.40
1259;DHT22;619;51.472;6.628;2024-02-26T06:47:03;11.00;81.30
1259;DHT22;619;51.472;6.628;2024-02-26T06:49:29;10.90;81.10
1259;DHT22;619;51.472;6.628;2024-02-26T06:51:55;10.80;81.60
1259;DHT22;619;51.472;6.628;2024-02-26T06:54:21;10.70;81.80
1259;DHT22;619;51.472;6.628;2024-02-26T06:56:46;10.80;82.20
1259;DHT22;619;51.472;6.628;2024-02-26T06:59:12;10.70;82.30
1259;DHT22;619;51.472;6.628;2024-02-26T07:01:41;10.70;82.20
1259;DHT22;619;51.472;6.628;2024-02-26T07:04:06;10.80;82.20
1259;DHT22;619;51.472;6.628;2024-02-26T07:06:32;10.80;82.10
1259;DHT22;619;51.472;6.628;2024-02-26T07:08:58;10.80;82.40
1259;DHT22;619;51.472;6.628;2024-02-26T07:11:26;10.80;82.10
1259;DHT22;619;51.472;6.628;2024-02-26T07:13:54;10.90;82.40
1259;DHT22;619;51.472;6.628;2024-02-26T07:16:21;10.90;82.10
1259;DHT22;619;51.472;6.628;2024-02-26T07:18:47;11.00;81.90
1259;DHT22;619;51.472;6.628;2024-02-26T07:21:13;11.00;81.80
1259;DHT22;619;51.472;6.628;2024-02-26T07:23:38;10.90;81.70
1259;DHT22;619;51.472;6.628;2024-02-26T07:26:04;10.90;81.90
1259;DHT22;619;51.472;6.628;2024-02-26T07:28:30;10.90;82.00
1259;DHT22;619;51.472;6.628;2024-02-26T07:30:55;11.10;82.10
1259;DHT22;619;51.472;6.628;2024-02-26T07:33:21;11.10;81.50
1259;DHT22;619;51.472;6.628;2024-02-26T07:35:47;11.10;81.20
1259;DHT22;619;51.472;6.628;2024-02-26T07:38:13;11.10;81.40
1259;DHT22;619;51.472;6.628;2024-02-26T07:40:39;11.20;81.40
1259;DHT22;619;51.472;6.628;2024-02-26T07:43:05;11.30;81.20
1259;DHT22;619;51.472;6.628;2024-02-26T07:45:30;11.30;81.00
1259;DHT22;619;51.472;6.628;2024-02-26T07:47:56;11.30;80.70
1259;DHT22;619;51.472;6.628;2024-02-26T07:50:21;11.30;80.90
1259;DHT22;619;51.472;6.628;2024-02-26T07:52:47;11.30;80.80
1259;DHT22;619;51.472;6.628;2024-02-26T07:55:13;11.10;80.60
1259;DHT22;619;51.472;6.628;2024-02-26T07:57:42;11.10;81.00
1259;DHT22;619;51.472;6.628;2024-02-26T08:00:09;11.10;80.90
1259;DHT22;619;51.472;6.628;2024-02-26T08:02:36;11.20;81.10
1259;DHT22;619;51.472;6.628;2024-02-26T08:05:02;11.10;81.10
1259;DHT22;619;51.472;6.628;2024-02-26T08:07:30;11.20;81.30
1259;DHT22;619;51.472;6.628;2024-02-26T08:09:58;11.20;81.20
1259;DHT22;619;51.472;6.628;2024-02-26T08:12:24;11.30;81.10
1259;DHT22;619;51.472;6.628;2024-02-26T08:14:50;11.30;80.80
1259;DHT22;619;51.472;6.628;2024-02-26T08:17:15;11.30;80.80
1259;DHT22;619;51.472;6.628;2024-02-26T08:19:43;11.30;80.70
1259;DHT22;619;51.472;6.628;2024-02-26T08:22:09;11.30;80.70
1259;DHT22;619;51.472;6.628;2024-02-26T08:24:44;11.40;80.80
1259;DHT22;619;51.472;6.628;2024-02-26T08:27:10;11.50;80.70
1259;DHT22;619;51.472;6.628;2024-02-26T08:29:35;11.50;80.60
1259;DHT22;619;51.472;6.628;2024-02-26T08:32:02;11.50;80.60
1259;DHT22;619;51.472;6.628;2024-02-26T08:34:27;11.60;80.40
1259;DHT22;619;51.472;6.628;2024-02-26T08:36:53;11.60;80.20
1259;DHT22;619;51.472;6.628;2024-02-26T08:39:19;11.50;79.80
1259;DHT22;619;51.472;6.628;2024-02-26T08:41:44;11.30;80.00
1259;DHT22;619;51.472;6.628;2024-02-26T08:44:12;11.30;80.90
1259;DHT22;619;51.472;6.628;2024-02-26T08:46:38;11.40;80.80
1259;DHT22;619;51.472;6.628;2024-02-26T08:49:04;11.30;80.30
1259;DHT22;619;51.472;6.628;2024-02-26T08:51:30;11.40;80.90
1259;DHT22;619;51.472;6.628;2024-02-26T08:53:57;11.40;80.70
1259;DHT22;619;51.472;6.628;2024-02-26T08:56:25;11.50;80.80
1259;DHT22;619;51.472;6.628;2024-02-26T08:58:51;11.50;80.60
1259;DHT22;619;51.472;6.628;2024-02-26T09:01:21;11.60;80.60
1259;DHT22;619;51.472;6.628;2024-02-26T09:03:48;11.70;80.40
1259;DHT22;619;51.472;6.628;2024-02-26T09:06:16;11.70;80.30
1259;DHT22;619;51.472;6.628;2024-02-26T09:08:47;11.70;80.30
1259;DHT22;619;51.472;6.628;2024-02-26T09:11:13;11.60;80.20
1259;DHT22;619;51.472;6.628;2024-02-26T09:13:40;11.60;80.20
1259;DHT22;619;51.472;6.628;2024-02-26T09:16:07;11.60;80.30
1259;DHT22;619;51.472;6.628;2024-02-26T09:18:33;11.60;80.20
1259;DHT22;619;51.472;6.628;2024-02-26T09:20:58;11.60;80.40
1259;DHT22;619;51.472;6.628;2024-02-26T09:23:24;11.50;80.40
1259;DHT22;619;51.472;6.628;2024-02-26T09:25:50;11.60;80.60
1259;DHT22;619;51.472;6.628;2024-02-26T09:28:18;11.50;80.50
1259;DHT22;619;51.472;6.628;2024-02-26T09:30:45;11.60;80.70
1259;DHT22;619;51.472;6.628;2024-02-26T09:33:11;11.80;80.70
1259;DHT22;619;51.472;6.628;2024-02-26T09:35:41;11.70;80.40
1259;DHT22;619;51.472;6.628;2024-02-26T09:38:07;11.70;80.50
1259;DHT22;619;51.472;6.628;2024-02-26T09:40:32;11.70;80.30
1259;DHT22;619;51.472;6.628;2024-02-26T09:43:07;11.70;80.30
1259;DHT22;619;51.472;6.628;2024-02-26T09:45:35;11.70;80.30
1259;DHT22;619;51.472;6.628;2024-02-26T09:48:02;11.70;80.20
1259;DHT22;619;51.472;6.628;2024-02-26T09:50:30;11.70;80.30
1259;DHT22;619;51.472;6.628;2024-02-26T09:52:56;11.60;80.30
1259;DHT22;619;51.472;6.628;2024-02-26T09:55:25;11.70;80.50
1259;DHT22;619;51.472;6.628;2024-02-26T09:57:51;11.80;80.40
1259;DHT22;619;51.472;6.628;2024-02-26T10:00:21;11.80;80.20
1259;DHT22;619;51.472;6.628;2024-02-26T10:02:47;11.80;79.90
1259;DHT22;619;51.472;6.628;2024-02-26T10:05:19;11.80;80.10
1259;DHT22;619;51.472;6.628;2024-02-26T10:07:47;11.80;80.10
1259;DHT22;619;51.472;6.628;2024-02-26T10:10:14;11.80;80.10
1259;DHT22;619;51.472;6.628;2024-02-26T10:12:40;11.90;80.20
1259;DHT22;619;51.472;6.628;2024-02-26T10:15:08;12.00;80.10
1259;DHT22;619;51.472;6.628;2024-02-26T10:17:34;12.00;80.10
1259;DHT22;619;51.472;6.628;2024-02-26T10:20:18;12.00;79.80
1259;DHT22;619;51.472;6.628;2024-02-26T10:22:47;12.00;79.80
1259;DHT22;619;51.472;6.628;2024-02-26T10:25:13;12.00;80.00
1259;DHT22;619;51.472;6.628;2024-02-26T10:27:45;12.00;80.10
1259;DHT22;619;51.472;6.628;2024-02-26T10:30:22;12.00;80.30
1259;DHT22;619;51.472;6.628;2024-02-26T10:32:49;12.00;80.00
1259;DHT22;619;51.472;6.628;2024-02-26T10:35:19;12.00;80.00
1259;DHT22;619;51.472;6.628;2024-02-26T10:37:52;12.10;80.40
1259;DHT22;619;51.472;6.628;2024-02-26T10:40:18;12.00;80.30
1259;DHT22;619;51.472;6.628;2024-02-26T10:42:47;12.00;80.40
1259;DHT22;619;51.472;6.628;2024-02-26T10:45:13;12.00;80.60
1259;DHT22;619;51.472;6.628;2024-02-26T10:47:40;12.10;81.30
1259;DHT22;619;51.472;6.628;2024-02-26T10:50:06;12.00;80.60
1259;DHT22;619;51.472;6.628;2024-02-26T10:52:36;12.10;80.60
1259;DHT22;619;51.472;6.628;2024-02-26T10:55:04;12.10;80.60
1259;DHT22;619;51.472;6.628;2024-02-26T10:57:38;12.20;80.70
1259;DHT22;619;51.472;6.628;2024-02-26T11:00:05;12.20;80.30
1259;DHT22;619;51.472;6.628;2024-02-26T11:02:35;12.20;80.20
1259;DHT22;619;51.472;6.628;2024-02-26T11:05:07;12.30;80.20
1259;DHT22;619;51.472;6.628;2024-02-26T11:07:34;12.40;80.20
1259;DHT22;619;51.472;6.628;2024-02-26T11:10:02;12.50;80.50
1259;DHT22;619;51.472;6.628;2024-02-26T11:12:31;12.60;80.40
1259;DHT22;619;51.472;6.628;2024-02-26T11:14:58;12.70;80.20
1259;DHT22;619;51.472;6.628;2024-02-26T11:17:29;12.80;80.00
1259;DHT22;619;51.472;6.628;2024-02-26T11:20:00;12.80;79.80
1259;DHT22;619;51.472;6.628;2024-02-26T11:22:27;12.90;79.80
1259;DHT22;619;51.472;6.628;2024-02-26T11:24:54;12.90;79.40
1259;DHT22;619;51.472;6.628;2024-02-26T11:27:26;13.00;79.50
1259;DHT22;619;51.472;6.628;2024-02-26T11:29:59;13.10;79.50
1259;DHT22;619;51.472;6.628;2024-02-26T11:32:27;13.10;79.20
1259;DHT22;619;51.472;6.628;2024-02-26T11:34:56;13.10;79.30
1259;DHT22;619;51.472;6.628;2024-02-26T11:37:22;13.10;78.90
1259;DHT22;619;51.472;6.628;2024-02-26T11:39:53;13.20;79.30
1259;DHT22;619;51.472;6.628;2024-02-26T11:42:24;13.30;79.80
1259;DHT22;619;51.472;6.628;2024-02-26T11:44:53;13.40;79.60
1259;DHT22;619;51.472;6.628;2024-02-26T11:47:22;13.40;80.00
1259;DHT22;619;51.472;6.628;2024-02-26T11:49:48;13.50;79.00
1259;DHT22;619;51.472;6.628;2024-02-26T11:52:15;13.50;78.70
1259;DHT22;619;51.472;6.628;2024-02-26T11:57:30;13.40;78.50
1259;DHT22;619;51.472;6.628;2024-02-26T12:02:46;13.20;78.40
1259;DHT22;619;51.472;6.628;2024-02-26T12:07:48;13.00;78.20
1259;DHT22;619;51.472;6.628;2024-02-26T12:10:28;13.00;79.00
1259;DHT22;619;51.472;6.628;2024-02-26T12:13:03;13.00;79.60
1259;DHT22;619;51.472;6.628;2024-02-26T12:15:33;13.00;80.20
1259;DHT22;619;51.472;6.628;2024-02-26T12:18:03;13.10;80.00
1259;DHT22;619;51.472;6.628;2024-02-26T12:20:31;13.30;80.60
1259;DHT22;619;51.472;6.628;2024-02-26T12:22:58;13.50;79.70
1259;DHT22;619;51.472;6.628;2024-02-26T12:25:26;13.50;78.30
1259;DHT22;619;51.472;6.628;2024-02-26T12:27:54;13.60;78.60
1259;DHT22;619;51.472;6.628;2024-02-26T12:30:21;13.60;77.50
1259;DHT22;619;51.472;6.628;2024-02-26T12:32:51;13.50;77.00
1259;DHT22;619;51.472;6.628;2024-02-26T12:35:19;13.50;77.60
1259;DHT22;619;51.472;6.628;2024-02-26T12:37:46;13.40;76.90
1259;DHT22;619;51.472;6.628;2024-02-26T12:40:12;13.40;77.30
1259;DHT22;619;51.472;6.628;2024-02-26T12:42:41;13.40;77.20
1259;DHT22;619;51.472;6.628;2024-02-26T12:45:10;13.40;77.50
1259;DHT22;619;51.472;6.628;2024-02-26T12:47:40;13.30;77.50
1259;DHT22;619;51.472;6.628;2024-02-26T12:50:07;13.30;78.00
1259;DHT22;619;51.472;6.628;2024-02-26T12:52:34;13.40;77.80
1259;DHT22;619;51.472;6.628;2024-02-26T12:55:02;13.30;77.40
1259;DHT22;619;51.472;6.628;2024-02-26T12:57:37;13.30;77.60
1259;DHT22;619;51.472;6.628;2024-02-26T13:00:12;13.30;76.80
1259;DHT22;619;51.472;6.628;2024-02-26T13:02:40;13.30;77.30
1259;DHT22;619;51.472;6.628;2024-02-26T13:05:11;13.40;77.30
1259;DHT22;619;51.472;6.628;2024-02-26T13:07:44;13.50;77.40
1259;DHT22;619;51.472;6.628;2024-02-26T13:10:12;13.50;76.70
1259;DHT22;619;51.472;6.628;2024-02-26T13:12:44;13.50;76.80
1259;DHT22;619;51.472;6.628;2024-02-26T13:15:19;13.40;76.50
1259;DHT22;619;51.472;6.628;2024-02-26T13:17:45;13.40;76.60
1259;DHT22;619;51.472;6.628;2024-02-26T13:20:12;13.40;76.60
1259;DHT22;619;51.472;6.628;2024-02-26T13:22:41;13.40;76.90
1259;DHT22;619;51.472;6.628;2024-02-26T13:25:11;13.30;77.70
1259;DHT22;619;51.472;6.628;2024-02-26T13:27:37;13.30;77.10
1259;DHT22;619;51.472;6.628;2024-02-26T13:30:09;13.30;77.10
1259;DHT22;619;51.472;6.628;2024-02-26T13:32:36;13.30;77.10
1259;DHT22;619;51.472;6.628;2024-02-26T13:35:06;13.40;76.90
1259;DHT22;619;51.472;6.628;2024-02-26T13:37:35;13.40;76.70
1259;DHT22;619;51.472;6.628;2024-02-26T13:40:08;13.30;76.40
1259;DHT22;619;51.472;6.628;2024-02-26T13:42:37;13.30;76.20
1259;DHT22;619;51.472;6.628;2024-02-26T13:45:04;13.20;76.20
1259;DHT22;619;51.472;6.628;2024-02-26T13:47:34;13.20;76.60
1259;DHT22;619;51.472;6.628;2024-02-26T13:50:02;13.30;76.80
1259;DHT22;619;51.472;6.628;2024-02-26T13:52:28;13.30;76.50
1259;DHT22;619;51.472;6.628;2024-02-26T13:54:58;13.30;76.00
1259;DHT22;619;51.472;6.628;2024-02-26T13:57:25;13.20;76.20
1259;DHT22;619;51.472;6.628;2024-02-26T13:59:51;13.20;76.30
1259;DHT22;619;51.472;6.628;2024-02-26T14:02:17;13.20;76.70
1259;DHT22;619;51.472;6.628;2024-02-26T14:04:42;13.20;77.20
1259;DHT22;619;51.472;6.628;2024-02-26T14:07:08;13.20;76.60
1259;DHT22;619;51.472;6.628;2024-02-26T14:09:40;13.20;76.60
1259;DHT22;619;51.472;6.628;2024-02-26T14:12:10;13.10;76.50
1259;DHT22;619;51.472;6.628;2024-02-26T14:14:36;13.20;76.70
1259;DHT22;619;51.472;6.628;2024-02-26T14:17:06;13.30;76.80
1259;DHT22;619;51.472;6.628;2024-02-26T14:19:34;13.20;76.20
1259;DHT22;619;51.472;6.628;2024-02-26T14:22:02;13.20;76.70
1259;DHT22;619;51.472;6.628;2024-02-26T14:24:28;13.10;76.50
1259;DHT22;619;51.472;6.628;2024-02-26T14:26:54;13.20;77.10
1259;DHT22;619;51.472;6.628;2024-02-26T14:29:24;13.20;77.10
1259;DHT22;619;51.472;6.628;2024-02-26T14:31:52;13.20;77.90
1259;DHT22;619;51.472;6.628;2024-02-26T14:34:17;13.30;77.40
1259;DHT22;619;51.472;6.628;2024-02-26T14:36:44;13.30;76.90
1259;DHT22;619;51.472;6.628;2024-02-26T14:39:10;13.30;76.80
1259;DHT22;619;51.472;6.628;2024-02-26T14:41:41;13.30;76.70
1259;DHT22;619;51.472;6.628;2024-02-26T14:44:06;13.30;76.50
1259;DHT22;619;51.472;6.628;2024-02-26T14:46:32;13.30;76.60
1259;DHT22;619;51.472;6.628;2024-02-26T14:48:58;13.20;76.50
1259;DHT22;619;51.472;6.628;2024-02-26T14:51:26;13.30;76.80
1259;DHT22;619;51.472;6.628;2024-02-26T14:53:54;13.20;76.60
1259;DHT22;619;51.472;6.628;2024-02-26T14:56:22;13.30;76.70
1259;DHT22;619;51.472;6.628;2024-02-26T14:58:50;13.30;76.70
1259;DHT22;619;51.472;6.628;2024-02-26T15:01:18;13.30;76.40
1259;DHT22;619;51.472;6.628;2024-02-26T15:03:46;13.20;76.20
1259;DHT22;619;51.472;6.628;2024-02-26T15:06:13;13.10;76.50
1259;DHT22;619;51.472;6.628;2024-02-26T15:08:38;13.10;76.80
1259;DHT22;619;51.472;6.628;2024-02-26T15:11:06;13.10;76.80
1259;DHT22;619;51.472;6.628;2024-02-26T15:13:33;13.20;77.10
1259;DHT22;619;51.472;6.628;2024-02-26T15:15:59;13.20;76.80
1259;DHT22;619;51.472;6.628;2024-02-26T15:18:24;13.30;76.60
1259;DHT22;619;51.472;6.628;2024-02-26T15:20:54;13.30;76.50
1259;DHT22;619;51.472;6.628;2024-02-26T15:23:21;13.30;76.50
1259;DHT22;619;51.472;6.628;2024-02-26T15:25:47;13.30;76.50
1259;DHT22;619;51.472;6.628;2024-02-26T15:28:13;13.30;76.30
1259;DHT22;619;51.472;6.628;2024-02-26T15:30:40;13.30;76.50
1259;DHT22;619;51.472;6.628;2024-02-26T15:33:09;13.20;76.30
1259;DHT22;619;51.472;6.628;2024-02-26T15:35:35;13.20;76.60
1259;DHT22;619;51.472;6.628;2024-02-26T15:38:02;13.20;76.60
1259;DHT22;619;51.472;6.628;2024-02-26T15:40:28;13.10;76.60
1259;DHT22;619;51.472;6.628;2024-02-26T15:42:56;13.10;76.60
1259;DHT22;619;51.472;6.628;2024-02-26T15:45:24;13.00;76.90
1259;DHT22;619;51.472;6.628;2024-02-26T15:47:50;13.00;77.20
1259;DHT22;619;51.472;6.628;2024-02-26T15:50:16;13.00;77.40
1259;DHT22;619;51.472;6.628;2024-02-26T15:52:41;13.00;77.50
1259;DHT22;619;51.472;6.628;2024-02-26T15:55:11;13.00;77.60
1259;DHT22;619;51.472;6.628;2024-02-26T15:57:41;12.90;77.70
1259;DHT22;619;51.472;6.628;2024-02-26T16:00:07;12.90;77.70
1259;DHT22;619;51.472;6.628;2024-02-26T16:02:36;12.90;77.90
1259;DHT22;619;51.472;6.628;2024-02-26T16:05:05;12.80;78.10
1259;DHT22;619;51.472;6.628;2024-02-26T16:10:08;12.70;78.30
1259;DHT22;619;51.472;6.628;2024-02-26T16:12:44;12.70;78.70
1259;DHT22;619;51.472;6.628;2024-02-26T16:15:10;12.60;78.50
1259;DHT22;619;51.472;6.628;2024-02-26T16:17:43;12.40;79.00
1259;DHT22;619;51.472;6.628;2024-02-26T16:20:18;12.40;79.30
1259;DHT22;619;51.472;6.628;2024-02-26T16:22:46;12.50;79.50
1259;DHT22;619;51.472;6.628;2024-02-26T16:25:12;12.50;79.50
1259;DHT22;619;51.472;6.628;2024-02-26T16:27:39;12.50;79.40